»·PEaware :: SWA1806 KPHX-KSNA

SWA1806 :: KPHX-KSNA

FLIGHT INFORMATION

Flight Status: Arrived
Operator:
Southwest Airlines
More flights by this operator :: More flights under this callsign
Pilot: Paul A. (20189)
Aircraft: BOEING 737-700
(B737)
More flights by this aircraft type
Origin: KPHX Phoenix Sky Harbor Intl
United States
Destination: KSNA John Wayne-Orange Co
United States
More flights between these airports :: More routes between these airports
Route: KEENS2 HRRBR EMLLD DSNEE4
File this flight plan on PilotEdge
Remarks:
Altitude:
(Current/Filed)
32,000ft
Speed:
(Current/Filed)
455kts
Departed: 11-Nov-18 06:25 PM
Arrived: 11-Nov-18 07:27 PM
Distance/Time
Traveled:
293nm/1:01
Distance/Time
To Go:
Arrived

Flight Plot

Page will automatically refresh every two minutes.

Flight plan parsing failed; only flown route is shown


Map Options




Map Legend


Flown Route
Filed Route
Departure Airport
Arrival Airport
Navaid (VOR, NDB)
Fix

Horizontal Profiles

Position Reports

Time Latitude Longitude Heading Altitude Ground
Speed
11-Nov-18 18:10 33.434424 -111.995020 90 1143ft 0kts
11-Nov-18 18:11 33.434424 -111.995020 90 1143ft 0kts
11-Nov-18 18:12 33.434424 -111.995020 90 1143ft 0kts
11-Nov-18 18:13 33.434424 -111.995020 90 1143ft 0kts
11-Nov-18 18:14 33.434424 -111.995020 90 1143ft 0kts
11-Nov-18 18:15 33.434424 -111.995020 90 1143ft 0kts
11-Nov-18 18:16 33.434424 -111.995020 90 1143ft 0kts
11-Nov-18 18:17 33.434424 -111.995020 90 1143ft 0kts
11-Nov-18 18:18 33.434430 -111.995437 98 1143ft 2kts
11-Nov-18 18:19 33.434444 -111.995518 105 1143ft 0kts
11-Nov-18 18:20 33.434444 -111.995518 105 1143ft 0kts
11-Nov-18 18:21 33.434444 -111.995518 105 1143ft 0kts
11-Nov-18 18:22 33.434444 -111.995518 105 1143ft 0kts
11-Nov-18 18:23 33.434441 -111.995508 105 1143ft 1kts
11-Nov-18 18:24 33.432145 -111.995051 94 1142ft 5kts
11-Nov-18 18:25 33.431974 -111.993698 142 1143ft 0kts
11-Nov-18 18:26 33.431973 -111.993697 142 1143ft 0kts
11-Nov-18 18:27 33.431069 -111.994950 276 1143ft 39kts
11-Nov-18 18:28 33.429998 -112.042242 269 3420ft 162kts
11-Nov-18 18:29 33.415411 -112.110800 254 5694ft 248kts
11-Nov-18 18:30 33.393220 -112.197426 270 9047ft 285kts
11-Nov-18 18:31 33.404574 -112.292591 285 12269ft 312kts
11-Nov-18 18:32 33.420646 -112.399486 285 15543ft 332kts
11-Nov-18 18:33 33.436856 -112.509770 285 19064ft 342kts
11-Nov-18 18:34 33.450747 -112.625254 278 22065ft 361kts
11-Nov-18 18:35 33.452145 -112.747455 277 24664ft 375kts
11-Nov-18 18:36 33.466218 -112.871573 287 26865ft 379kts
11-Nov-18 18:37 33.489415 -112.996626 287 28784ft 389kts
11-Nov-18 18:38 33.512489 -113.121596 287 31167ft 381kts
11-Nov-18 18:39 33.535866 -113.245839 286 32150ft 383kts
11-Nov-18 18:40 33.558551 -113.369819 286 32160ft 380kts
11-Nov-18 18:41 33.581028 -113.493538 286 32166ft 380kts
11-Nov-18 18:42 33.604209 -113.617212 287 32173ft 380kts
11-Nov-18 18:43 33.627108 -113.741009 287 32185ft 381kts
11-Nov-18 18:44 33.651625 -113.864606 293 32215ft 377kts
11-Nov-18 18:45 33.694039 -113.979077 298 32227ft 375kts
11-Nov-18 18:46 33.737623 -114.092833 298 32231ft 375kts
11-Nov-18 18:47 33.765352 -114.214439 283 32233ft 383kts
11-Nov-18 18:48 33.780566 -114.341502 283 32233ft 384kts
11-Nov-18 18:49 33.795348 -114.469175 283 32233ft 385kts
11-Nov-18 18:50 33.810394 -114.596906 283 32231ft 386kts
11-Nov-18 18:51 33.825082 -114.725353 282 32233ft 388kts
11-Nov-18 18:52 33.839498 -114.854406 282 32236ft 390kts
11-Nov-18 18:53 33.853873 -114.983611 282 32240ft 390kts
11-Nov-18 18:54 33.869956 -115.112987 288 32280ft 388kts
11-Nov-18 18:55 33.913482 -115.229647 299 31858ft 386kts
11-Nov-18 18:56 33.948803 -115.351516 288 32116ft 388kts
11-Nov-18 18:57 33.941780 -115.485259 269 32252ft 407kts
11-Nov-18 18:58 33.928690 -115.620749 270 32277ft 410kts
11-Nov-18 18:59 33.933835 -115.757237 279 32282ft 409kts
11-Nov-18 19:00 33.943745 -115.894793 279 32247ft 417kts
11-Nov-18 19:01 33.953830 -116.040416 279 31160ft 442kts
11-Nov-18 19:02 33.962755 -116.187451 274 29949ft 435kts
11-Nov-18 19:03 33.949648 -116.325400 266 27420ft 417kts
11-Nov-18 19:04 33.933472 -116.456445 266 24813ft 377kts
11-Nov-18 19:05 33.922168 -116.547022 266 22875ft 358kts
11-Nov-18 19:06 33.907036 -116.664803 266 20470ft 356kts
11-Nov-18 19:07 33.894682 -116.759935 266 18609ft 356kts
11-Nov-18 19:08 33.881930 -116.877520 266 16306ft 353kts
11-Nov-18 19:09 33.874731 -116.942941 266 15096ft 335kts
11-Nov-18 19:10 33.863222 -117.046686 266 13584ft 296kts
11-Nov-18 19:11 33.835192 -117.134963 217 12074ft 304kts
11-Nov-18 19:12 33.774777 -117.202541 231 10555ft 291kts
11-Nov-18 19:13 33.726686 -117.271764 231 9097ft 249kts
11-Nov-18 19:14 33.685946 -117.332603 231 8072ft 232kts
11-Nov-18 19:15 33.640954 -117.400264 231 8070ft 261kts
11-Nov-18 19:16 33.598623 -117.464089 231 7543ft 260kts
11-Nov-18 19:17 33.554091 -117.531189 231 6138ft 250kts
11-Nov-18 19:18 33.511747 -117.594966 231 4735ft 233kts
11-Nov-18 19:19 33.473530 -117.652269 231 3321ft 211kts
11-Nov-18 19:20 33.437574 -117.706055 231 3029ft 206kts
11-Nov-18 19:21 33.401420 -117.760175 231 3031ft 208kts
11-Nov-18 19:22 33.398516 -117.816690 320 3049ft 198kts
11-Nov-18 19:23 33.439023 -117.856513 322 3030ft 183kts
11-Nov-18 19:24 33.478474 -117.895427 322 3026ft 183kts
11-Nov-18 19:25 33.517341 -117.933834 322 3006ft 173kts
11-Nov-18 19:26 33.556581 -117.944197 24 2968ft 163kts
11-Nov-18 19:27 33.594027 -117.921970 31 2086ft 139kts
11-Nov-18 19:28 33.627723 -117.899294 28 1085ft 138kts
11-Nov-18 19:29 33.661216 -117.877949 28 228ft 129kts
11-Nov-18 19:30 33.677274 -117.867685 56 64ft 15kts
11-Nov-18 19:31 33.676680 -117.865066 93 64ft 15kts

Navigation Log

Ident Type
Flight plan parsing failed, navigation log unavailable